Alva, Oklahoma
Current Conditions -  °F | °C
As of 12:10 AM on Saturday 01 Nov 2014 (Local Time) from KAVK Reporting Station
Clear Clear  
Wind Chill: 32°   Ceiling: Unl
Heat Index: 37°   Visibility: 10mi
Dew Point: 19°   Wind: 7mph
Humidity: 48%   Direction: 100°E
Pressure: 30.41"   Gusts: NA
Location:  36.8°N, 98.67°W
Report Text: KAVK 010510Z AUTO 10006KT 10SM CLR 03/M07 A3041 RMK AO2
Loading
Personal Weather Stations






























Interactive Weather Map
Tropical Storm Tracking
New forecast layout! Learn more

10-Day Weather Forecast

Advertisements
Track Severe Weather on mobile